Terminal Aerodrome Forecast
Issued by NWS Twin Cities, MN

Home | Current Version | Previous Version | Text Only | Print | Product List | Glossary Off
Versions: 1 2 3 4 5 6 7 8 9 10 11 12 13 14 15

000
FTUS43 KMPX 281738
TAFEAU
TAF
KEAU 281738Z 2818/2918 27014G23KT P6SM SCT050
     FM290000 26007KT P6SM VCSH BKN050
     FM290400 27005KT P6SM SCT100
     FM291100 26007KT P6SM BKN030
     FM291500 27014G21KT P6SM OVC015=

USA.gov is the U.S. government's official web portal to all federal, state and local government web resources and services.